createdAt,value
2023-05-12T00:02:07.439Z,11.89
2023-05-12T00:04:24.693Z,11.88
2023-05-12T00:06:42.361Z,11.91
2023-05-12T00:08:59.330Z,11.89
2023-05-12T00:11:16.876Z,11.86
2023-05-12T00:13:33.882Z,11.90
2023-05-12T00:15:51.184Z,11.94
2023-05-12T00:18:08.506Z,11.98
2023-05-12T00:20:25.423Z,11.98
2023-05-12T00:22:42.737Z,11.97
2023-05-12T00:25:00.071Z,11.95
2023-05-12T00:27:17.413Z,11.94
2023-05-12T00:29:34.688Z,11.92
2023-05-12T00:31:52.459Z,11.95
2023-05-12T00:34:09.768Z,11.94
2023-05-12T00:36:27.032Z,11.92
2023-05-12T00:38:44.350Z,11.90
2023-05-12T00:41:01.606Z,11.90
2023-05-12T00:43:19.883Z,11.89
2023-05-12T00:45:37.334Z,11.89
2023-05-12T00:47:55.103Z,11.88
2023-05-12T00:50:12.124Z,11.86
2023-05-12T00:52:29.413Z,11.86
2023-05-12T00:54:46.707Z,11.86
2023-05-12T00:57:03.973Z,11.88
2023-05-12T00:59:21.884Z,11.88
2023-05-12T01:01:39.663Z,11.85
2023-05-12T01:03:56.965Z,11.81
2023-05-12T01:06:14.254Z,11.79
2023-05-12T01:08:31.565Z,11.77
2023-05-12T01:10:48.843Z,11.78
2023-05-12T01:13:06.186Z,11.77
2023-05-12T01:15:23.480Z,11.76
2023-05-12T01:17:41.739Z,11.75
2023-05-12T01:19:59.436Z,11.73
2023-05-12T01:22:16.906Z,11.72
2023-05-12T01:24:33.825Z,11.73
2023-05-12T01:26:51.539Z,11.73
2023-05-12T01:29:08.479Z,11.73
2023-05-12T01:31:25.894Z,11.72
2023-05-12T01:33:43.225Z,11.71
2023-05-12T01:36:00.190Z,11.72
2023-05-12T01:38:18.387Z,11.70
2023-05-12T01:40:35.668Z,11.67
2023-05-12T01:42:52.925Z,11.67
2023-05-12T01:45:10.200Z,11.62
2023-05-12T01:47:27.828Z,11.60
2023-05-12T01:49:44.795Z,11.60
2023-05-12T01:52:02.051Z,11.58
2023-05-12T01:54:19.302Z,11.57
2023-05-12T01:56:36.605Z,11.59
2023-05-12T01:58:53.959Z,11.59
2023-05-12T02:01:11.278Z,11.58
2023-05-12T02:03:28.629Z,11.59
2023-05-12T02:05:46.068Z,11.60
2023-05-12T02:08:03.361Z,11.59
2023-05-12T02:10:21.006Z,11.59
2023-05-12T02:12:38.419Z,11.60
2023-05-12T02:14:55.705Z,11.61
2023-05-12T02:17:13.013Z,11.63
2023-05-12T02:19:29.950Z,11.63
2023-05-12T02:21:48.205Z,11.61
2023-05-12T02:24:05.145Z,11.62
2023-05-12T02:26:22.865Z,11.62
2023-05-12T02:28:40.140Z,11.61
2023-05-12T02:30:57.045Z,11.60
2023-05-12T02:33:15.281Z,11.59
2023-05-12T02:35:32.199Z,11.60
2023-05-12T02:37:49.712Z,11.60
2023-05-12T02:40:06.953Z,11.60
2023-05-12T02:42:24.241Z,11.60
2023-05-12T02:44:41.560Z,11.60
2023-05-12T02:46:58.835Z,11.59
2023-05-12T02:49:16.045Z,11.61
2023-05-12T02:51:33.369Z,11.61
2023-05-12T02:53:50.772Z,11.59
2023-05-12T02:56:08.000Z,11.58
2023-05-12T02:58:25.672Z,11.57
2023-05-12T03:00:42.951Z,11.56
2023-05-12T03:03:00.813Z,11.56
2023-05-12T03:05:19.171Z,11.60
2023-05-12T03:07:36.817Z,11.59
2023-05-12T03:09:54.471Z,11.62
2023-05-12T03:12:11.755Z,11.61
2023-05-12T03:14:29.028Z,11.61
2023-05-12T03:16:47.422Z,11.60
2023-05-12T03:19:04.965Z,11.58
2023-05-12T03:21:22.636Z,11.58
2023-05-12T03:23:40.252Z,11.59
2023-05-12T03:25:57.492Z,11.60
2023-05-12T03:28:14.830Z,11.59
2023-05-12T03:30:31.736Z,11.59
2023-05-12T03:32:49.973Z,11.60
2023-05-12T03:35:06.888Z,11.59
2023-05-12T03:37:24.171Z,11.56
2023-05-12T03:39:41.545Z,11.55
2023-05-12T03:41:59.812Z,11.57
2023-05-12T03:44:17.113Z,11.57
2023-05-12T03:46:34.556Z,11.59
2023-05-12T03:48:52.417Z,11.62
2023-05-12T03:51:09.717Z,11.62
2023-05-12T03:53:27.021Z,11.60
2023-05-12T03:55:44.159Z,11.60
2023-05-12T03:58:01.495Z,11.58
2023-05-12T04:00:18.951Z,11.57
2023-05-12T04:02:37.406Z,11.57
2023-05-12T04:04:54.706Z,11.58
2023-05-12T04:07:11.953Z,11.60
2023-05-12T04:09:29.607Z,11.60
2023-05-12T04:11:46.916Z,11.59
2023-05-12T04:14:04.188Z,11.60
2023-05-12T04:16:21.616Z,11.61
2023-05-12T04:18:39.000Z,11.63
2023-05-12T04:20:56.655Z,11.65
2023-05-12T04:23:13.928Z,11.68
2023-05-12T04:25:31.218Z,11.67
2023-05-12T04:27:48.526Z,11.68
2023-05-12T04:30:05.852Z,11.68
2023-05-12T04:32:23.549Z,11.69
2023-05-12T04:34:40.940Z,11.70
2023-05-12T04:36:58.743Z,11.74
2023-05-12T04:39:16.058Z,11.75
2023-05-12T04:41:33.374Z,11.77
2023-05-12T04:46:10.427Z,11.78
2023-05-12T04:48:28.775Z,11.78
2023-05-12T04:50:45.969Z,11.77
2023-05-12T04:53:03.295Z,11.78
2023-05-12T04:55:21.388Z,11.79
2023-05-12T04:57:39.382Z,11.81
2023-05-12T04:59:58.869Z,11.86
2023-05-12T05:02:15.842Z,11.86
2023-05-12T05:04:34.078Z,11.86
2023-05-12T05:06:51.339Z,11.86
2023-05-12T05:09:08.557Z,11.87
2023-05-12T05:11:25.890Z,11.87
2023-05-12T05:13:43.158Z,11.90
2023-05-12T05:16:00.553Z,11.89
2023-05-12T05:18:17.883Z,11.91
2023-05-12T05:20:35.458Z,11.95
2023-05-12T05:22:53.155Z,11.98
2023-05-12T05:25:10.407Z,12.01
2023-05-12T05:27:27.659Z,12.03
2023-05-12T05:29:44.772Z,12.06
2023-05-12T05:32:01.993Z,12.10
2023-05-12T05:34:19.337Z,12.12
2023-05-12T05:36:36.645Z,12.13
2023-05-12T05:38:53.896Z,12.13
2023-05-12T05:41:11.160Z,12.15
2023-05-12T05:43:29.352Z,12.16
2023-05-12T05:45:46.685Z,12.21
2023-05-12T05:48:04.015Z,12.21
2023-05-12T05:50:21.799Z,12.20
2023-05-12T05:52:40.103Z,12.19
2023-05-12T05:54:57.089Z,12.22
2023-05-12T05:57:14.061Z,12.26
2023-05-12T05:59:31.301Z,12.31
2023-05-12T06:01:49.099Z,12.33
2023-05-12T06:04:06.495Z,12.35
2023-05-12T06:06:23.582Z,12.37
2023-05-12T06:08:40.859Z,12.39
2023-05-12T06:10:58.093Z,12.42
2023-05-12T06:13:16.370Z,12.45
2023-05-12T06:15:33.757Z,12.47
2023-05-12T06:17:51.179Z,12.49
2023-05-12T06:20:08.520Z,12.52
2023-05-12T06:22:25.820Z,12.57
2023-05-12T06:24:43.147Z,12.61
2023-05-12T06:27:01.363Z,12.64
2023-05-12T06:29:19.018Z,12.68
2023-05-12T06:31:36.700Z,12.72
2023-05-12T06:33:54.349Z,12.76
2023-05-12T06:36:11.576Z,12.75
2023-05-12T06:38:28.784Z,12.75
2023-05-12T06:40:46.060Z,12.76
2023-05-12T06:43:03.483Z,12.79
2023-05-12T06:45:21.250Z,12.80
2023-05-12T06:47:39.545Z,12.78
2023-05-12T06:49:57.215Z,12.83
2023-05-12T06:52:14.926Z,12.80
2023-05-12T06:54:32.224Z,12.85
2023-05-12T06:56:49.525Z,12.92
2023-05-12T06:59:06.437Z,12.95
2023-05-12T07:01:23.713Z,12.97
2023-05-12T07:03:40.797Z,13.00
2023-05-12T07:05:58.220Z,12.96
2023-05-12T07:08:15.470Z,12.96
2023-05-12T07:10:32.797Z,12.97
2023-05-12T07:12:51.115Z,12.99
2023-05-12T07:15:08.394Z,13.00
2023-05-12T07:17:25.693Z,13.01
2023-05-12T07:19:43.366Z,13.03
2023-05-12T07:22:00.623Z,13.07
2023-05-12T07:24:17.926Z,13.10
2023-05-12T07:26:35.549Z,13.14
2023-05-12T07:28:52.869Z,13.17
2023-05-12T07:31:09.886Z,13.21
2023-05-12T07:33:26.913Z,13.25
2023-05-12T07:35:44.603Z,13.27
2023-05-12T07:38:01.949Z,13.28
2023-05-12T07:40:19.211Z,13.32
2023-05-12T07:42:37.575Z,13.33
2023-05-12T07:44:55.274Z,13.33
2023-05-12T07:47:12.638Z,13.30
2023-05-12T07:49:29.951Z,13.30
2023-05-12T07:51:47.206Z,13.31
2023-05-12T07:54:04.511Z,13.27
2023-05-12T07:56:21.839Z,13.26
2023-05-12T07:58:39.059Z,13.26
2023-05-12T08:00:56.327Z,13.22
2023-05-12T08:03:13.656Z,13.17
2023-05-12T08:05:31.025Z,13.17
2023-05-12T08:07:49.288Z,13.18
2023-05-12T08:10:06.571Z,13.21
2023-05-12T08:12:23.818Z,13.24
2023-05-12T08:14:41.216Z,13.26
2023-05-12T08:16:58.243Z,13.28
2023-05-12T08:19:15.776Z,13.27
2023-05-12T08:21:34.125Z,13.31
2023-05-12T08:23:51.618Z,13.31
2023-05-12T08:26:08.830Z,13.32
2023-05-12T08:28:25.673Z,13.37
2023-05-12T08:30:43.397Z,13.40
2023-05-12T08:33:00.759Z,13.44
2023-05-12T08:35:18.078Z,13.47
2023-05-12T08:37:35.485Z,13.52
2023-05-12T08:39:52.754Z,13.46
2023-05-12T08:42:09.958Z,13.45
2023-05-12T08:44:27.295Z,13.52
2023-05-12T08:46:44.630Z,13.60
2023-05-12T08:49:01.954Z,13.67
2023-05-12T08:51:19.303Z,13.78
2023-05-12T08:53:36.594Z,13.90
2023-05-12T08:57:09.635Z,13.98
2023-05-12T08:58:40.980Z,14.12
2023-05-12T09:00:59.599Z,14.16
2023-05-12T09:03:16.682Z,14.21
2023-05-12T09:05:34.006Z,14.26
2023-05-12T09:07:51.259Z,14.31
2023-05-12T09:10:08.599Z,14.32
2023-05-12T09:12:25.951Z,14.32
2023-05-12T09:14:43.268Z,14.36
2023-05-12T09:17:01.022Z,14.48
2023-05-12T09:19:18.285Z,14.61
2023-05-12T09:21:35.522Z,14.80
2023-05-12T09:23:52.793Z,15.00
2023-05-12T09:26:10.223Z,15.09
2023-05-12T09:28:27.525Z,15.17
2023-05-12T09:30:44.846Z,15.28
2023-05-12T09:33:02.204Z,15.36
2023-05-12T09:35:23.736Z,15.42
2023-05-12T09:37:41.062Z,15.50
2023-05-12T09:39:58.342Z,15.54
2023-05-12T09:42:15.629Z,15.55
2023-05-12T09:44:33.383Z,15.60
2023-05-12T09:46:50.786Z,15.63
2023-05-12T09:49:07.725Z,15.65
2023-05-12T09:51:25.051Z,15.71
2023-05-12T09:53:41.992Z,15.88
2023-05-12T09:56:00.636Z,15.89
2023-05-12T09:58:17.639Z,15.93
2023-05-12T10:01:06.043Z,16.02
2023-05-12T10:03:16.950Z,16.13
2023-05-12T10:05:34.332Z,16.36
2023-05-12T10:07:52.514Z,16.60
2023-05-12T10:10:09.747Z,17.00
2023-05-12T10:12:26.986Z,17.09
2023-05-12T10:14:44.360Z,17.17
2023-05-12T10:17:02.714Z,17.21
2023-05-12T10:19:20.036Z,17.13
2023-05-12T10:21:37.285Z,17.17
2023-05-12T10:23:54.203Z,17.19
2023-05-12T10:26:11.805Z,17.22
2023-05-12T10:28:29.072Z,17.17
2023-05-12T10:30:46.006Z,17.35
2023-05-12T10:33:03.342Z,17.21
2023-05-12T10:35:20.904Z,17.14
2023-05-12T10:37:38.444Z,17.06
2023-05-12T10:39:55.826Z,17.04
2023-05-12T10:42:13.152Z,17.04
2023-05-12T10:44:31.419Z,16.96
2023-05-12T10:46:48.853Z,16.85
2023-05-12T10:49:06.272Z,16.94
2023-05-12T10:51:23.597Z,17.10
2023-05-12T10:53:48.125Z,17.32
2023-05-12T10:56:07.507Z,17.42
2023-05-12T10:58:26.009Z,17.58
2023-05-12T11:00:45.676Z,17.71
2023-05-12T11:03:09.966Z,17.68
2023-05-12T11:05:28.997Z,17.80
2023-05-12T11:07:47.314Z,17.88
2023-05-12T11:10:05.904Z,17.74
2023-05-12T11:12:24.680Z,17.59
2023-05-12T11:14:41.608Z,17.55
2023-05-12T11:16:58.867Z,17.58
2023-05-12T11:19:16.852Z,17.73
2023-05-12T11:21:34.087Z,17.85
2023-05-12T11:23:52.763Z,17.78
2023-05-12T11:26:10.001Z,17.94
2023-05-12T11:28:27.657Z,17.82
2023-05-12T11:30:46.002Z,17.93
2023-05-12T11:33:03.536Z,17.91
2023-05-12T11:35:21.542Z,17.89
2023-05-12T11:37:39.004Z,17.82
2023-05-12T11:39:55.975Z,17.64
2023-05-12T11:42:15.661Z,17.64
2023-05-12T11:44:34.962Z,17.80
2023-05-12T11:46:53.324Z,18.21
2023-05-12T11:49:11.542Z,18.73
2023-05-12T11:51:28.830Z,19.08
2023-05-12T11:53:46.116Z,19.37
2023-05-12T11:56:04.370Z,19.46
2023-05-12T11:58:21.238Z,19.48
2023-05-12T12:00:38.108Z,19.21
2023-05-12T12:02:55.472Z,18.79
2023-05-12T12:05:12.847Z,18.43
2023-05-12T12:07:31.122Z,18.04
2023-05-12T12:09:48.858Z,17.68
2023-05-12T12:12:07.240Z,17.33
2023-05-12T12:14:24.174Z,16.99
2023-05-12T12:16:41.556Z,16.71
2023-05-12T12:18:58.940Z,16.48
2023-05-12T12:21:18.373Z,16.31
2023-05-12T12:23:49.926Z,16.17
2023-05-12T12:26:08.426Z,16.10
2023-05-12T12:28:25.717Z,15.99
2023-05-12T12:30:42.688Z,15.90
2023-05-12T12:33:00.141Z,15.84
2023-05-12T12:35:17.494Z,15.78
2023-05-12T12:37:34.887Z,15.76
2023-05-12T12:39:53.196Z,15.72
2023-05-12T12:42:10.540Z,15.67
2023-05-12T12:44:27.476Z,15.61
2023-05-12T12:46:44.434Z,15.51
2023-05-12T12:49:02.700Z,15.48
2023-05-12T12:51:20.056Z,15.45
2023-05-12T12:53:37.302Z,15.39
2023-05-12T12:55:55.006Z,15.31
2023-05-12T12:58:11.947Z,15.24
2023-05-12T13:00:29.301Z,15.17
2023-05-12T13:02:46.655Z,15.11
2023-05-12T13:05:03.782Z,15.10
2023-05-12T13:07:21.107Z,15.12
2023-05-12T13:09:38.502Z,15.23
2023-05-12T13:11:55.787Z,15.28
2023-05-12T13:14:13.006Z,15.33
2023-05-12T13:16:30.325Z,15.45
2023-05-12T13:18:48.098Z,15.59
2023-05-12T13:21:05.420Z,15.73
2023-05-12T13:23:23.136Z,15.77
2023-05-12T13:25:40.444Z,15.80
2023-05-12T13:27:58.185Z,15.78
2023-05-12T13:30:15.053Z,15.77
2023-05-12T13:32:32.339Z,15.76
2023-05-12T13:34:49.604Z,15.79
2023-05-12T13:37:06.954Z,15.80
2023-05-12T13:39:23.858Z,15.83
2023-05-12T13:41:41.151Z,15.92
2023-05-12T13:43:59.345Z,15.91
2023-05-12T13:46:16.314Z,15.92
2023-05-12T13:48:33.593Z,15.87
2023-05-12T13:50:50.412Z,15.81
2023-05-12T13:53:08.160Z,15.76
2023-05-12T13:55:25.394Z,15.66
2023-05-12T13:57:42.965Z,15.57
2023-05-12T14:00:00.286Z,15.49
2023-05-12T14:02:17.597Z,15.44
2023-05-12T14:04:34.557Z,15.39
2023-05-12T14:06:51.875Z,15.33
2023-05-12T14:09:08.937Z,15.38
2023-05-12T14:11:26.690Z,15.43
2023-05-12T14:13:44.420Z,15.62
2023-05-12T14:16:02.733Z,15.82
2023-05-12T14:18:20.919Z,16.06
2023-05-12T14:20:38.347Z,16.14
2023-05-12T14:22:55.650Z,16.29
2023-05-12T14:25:13.953Z,16.49
2023-05-12T14:27:31.644Z,16.56
2023-05-12T14:29:48.937Z,16.63
2023-05-12T14:32:06.336Z,16.75
2023-05-12T14:34:23.429Z,16.69
2023-05-12T14:36:41.681Z,16.74
2023-05-12T14:38:58.891Z,16.74
2023-05-12T14:41:17.255Z,16.71
2023-05-12T14:43:34.863Z,16.71
2023-05-12T14:45:52.148Z,16.73
2023-05-12T14:48:09.564Z,16.71
2023-05-12T14:50:27.600Z,16.72
2023-05-12T14:52:44.812Z,16.78
2023-05-12T14:55:01.857Z,16.74
2023-05-12T14:57:20.205Z,16.72
2023-05-12T14:59:38.564Z,16.73
2023-05-12T15:01:55.884Z,16.71
2023-05-12T15:04:13.920Z,16.68
2023-05-12T15:06:30.985Z,16.69
2023-05-12T15:08:48.260Z,16.72
2023-05-12T15:11:05.531Z,16.76
2023-05-12T15:13:23.539Z,16.70
2023-05-12T15:15:40.774Z,16.72
2023-05-12T15:17:58.136Z,16.75
2023-05-12T15:20:15.289Z,16.77
2023-05-12T15:22:32.598Z,16.68
2023-05-12T15:24:49.526Z,16.71
2023-05-12T15:27:06.842Z,16.69
2023-05-12T15:29:24.084Z,16.77
2023-05-12T15:31:41.018Z,16.66
2023-05-12T15:33:58.315Z,16.69
2023-05-12T15:36:15.680Z,16.71
2023-05-12T15:38:32.921Z,16.78
2023-05-12T15:40:50.165Z,16.74
2023-05-12T15:43:07.363Z,16.72
2023-05-12T15:45:24.684Z,16.62
2023-05-12T15:47:43.156Z,16.60
2023-05-12T15:50:00.413Z,16.57
2023-05-12T15:52:17.634Z,16.63
2023-05-12T15:54:34.735Z,16.67
2023-05-12T15:56:52.985Z,16.69
2023-05-12T15:59:10.221Z,16.75
2023-05-12T16:01:27.172Z,16.78
2023-05-12T16:03:44.626Z,16.87
2023-05-12T16:06:02.339Z,16.92
2023-05-12T16:08:19.708Z,17.00
2023-05-12T16:10:36.926Z,17.01
2023-05-12T16:12:54.012Z,17.08
2023-05-12T16:15:11.164Z,17.10
2023-05-12T16:17:28.619Z,17.14
2023-05-12T16:19:46.686Z,17.08
2023-05-12T16:22:04.000Z,17.11
2023-05-12T16:24:22.293Z,17.10
2023-05-12T16:26:39.531Z,16.90
2023-05-12T16:28:56.744Z,16.81
2023-05-12T16:31:13.980Z,16.84
2023-05-12T16:33:31.277Z,16.74
2023-05-12T16:35:48.168Z,16.67
2023-05-12T16:38:05.447Z,16.64
2023-05-12T16:40:22.493Z,16.64
2023-05-12T16:42:41.178Z,16.58
2023-05-12T16:44:58.399Z,16.48
2023-05-12T16:47:15.482Z,16.44
2023-05-12T16:49:32.827Z,16.46
2023-05-12T16:51:51.034Z,16.47
2023-05-12T16:54:08.382Z,16.49
2023-05-12T16:56:25.424Z,16.44
2023-05-12T16:58:42.427Z,16.41
2023-05-12T17:00:59.700Z,16.37
2023-05-12T17:03:17.413Z,16.35
2023-05-12T17:05:35.068Z,16.25
2023-05-12T17:07:52.368Z,16.21
2023-05-12T17:10:09.654Z,16.19
2023-05-12T17:12:26.556Z,16.15
2023-05-12T17:14:45.970Z,16.12
2023-05-12T17:17:07.487Z,16.13
2023-05-12T17:19:24.456Z,16.11
2023-05-12T17:21:41.708Z,16.10
2023-05-12T17:23:58.955Z,16.08
2023-05-12T17:26:15.877Z,16.07
2023-05-12T17:28:35.286Z,16.07
2023-05-12T17:30:52.570Z,16.06
2023-05-12T17:33:09.966Z,16.04
2023-05-12T17:35:27.375Z,16.01
2023-05-12T17:37:44.682Z,16.00
2023-05-12T17:40:02.126Z,15.99
2023-05-12T17:42:19.090Z,16.01
2023-05-12T17:44:36.418Z,16.03
2023-05-12T17:46:54.744Z,15.98
2023-05-12T17:49:11.839Z,15.96
2023-05-12T17:51:28.784Z,15.90
2023-05-12T17:53:46.034Z,15.83
2023-05-12T17:56:03.077Z,15.79
2023-05-12T17:58:20.696Z,15.76
2023-05-12T18:00:37.717Z,15.68
2023-05-12T18:02:56.147Z,15.62
2023-05-12T18:05:13.598Z,15.60
2023-05-12T18:07:33.360Z,15.56
2023-05-12T18:09:51.012Z,15.51
2023-05-12T18:12:08.153Z,15.44
2023-05-12T18:14:25.417Z,15.41
2023-05-12T18:16:45.720Z,15.36
2023-05-12T18:19:03.276Z,15.29
2023-05-12T18:21:21.142Z,15.26
2023-05-12T18:23:38.239Z,15.25
2023-05-12T18:25:55.725Z,15.22
2023-05-12T18:28:12.999Z,15.19
2023-05-12T18:30:30.318Z,15.17
2023-05-12T18:32:47.574Z,15.14
2023-05-12T18:35:04.932Z,15.09
2023-05-12T18:37:22.551Z,15.07
2023-05-12T18:39:39.804Z,15.02
2023-05-12T18:41:56.996Z,14.99
2023-05-12T18:44:15.562Z,14.95
2023-05-12T18:46:32.531Z,14.90
2023-05-12T18:48:49.482Z,14.84
2023-05-12T18:51:06.778Z,14.76
2023-05-12T18:53:25.070Z,14.69
2023-05-12T18:55:42.021Z,14.64
2023-05-12T18:57:59.306Z,14.56
2023-05-12T19:00:16.729Z,14.53
2023-05-12T19:02:34.056Z,14.49
2023-05-12T19:04:51.876Z,14.43
2023-05-12T19:07:09.324Z,14.39
2023-05-12T19:09:26.753Z,14.32
2023-05-12T19:11:44.396Z,14.29
2023-05-12T19:14:01.419Z,14.26
2023-05-12T19:16:18.442Z,14.21
2023-05-12T19:18:36.684Z,14.16
2023-05-12T19:20:53.716Z,14.13
2023-05-12T19:23:10.715Z,14.11
2023-05-12T19:25:27.701Z,14.08
2023-05-12T19:27:44.994Z,14.01
2023-05-12T19:30:03.187Z,13.94
2023-05-12T19:32:20.261Z,13.89
2023-05-12T19:34:37.716Z,13.83
2023-05-12T19:36:54.947Z,13.76
2023-05-12T19:39:12.205Z,13.70
2023-05-12T19:41:29.672Z,13.62
2023-05-12T19:43:46.756Z,13.57
2023-05-12T19:46:03.806Z,13.51
2023-05-12T19:48:22.109Z,13.44
2023-05-12T19:50:39.149Z,13.38
2023-05-12T19:52:56.499Z,13.33
2023-05-12T19:55:13.773Z,13.29
2023-05-12T19:57:30.705Z,13.29
2023-05-12T19:59:47.687Z,13.27
2023-05-12T20:02:05.041Z,13.23
2023-05-12T20:04:22.068Z,13.18
2023-05-12T20:06:40.098Z,13.15
2023-05-12T20:08:57.384Z,13.12
2023-05-12T20:11:14.460Z,13.09
2023-05-12T20:13:31.553Z,13.06
2023-05-12T20:15:49.138Z,13.05
2023-05-12T20:18:06.458Z,13.03
2023-05-12T20:20:23.832Z,12.98
2023-05-12T20:22:40.843Z,13.00
2023-05-12T20:24:58.776Z,12.99
2023-05-12T20:27:16.103Z,12.97
2023-05-12T20:29:33.410Z,12.94
2023-05-12T20:31:50.818Z,12.92
2023-05-12T20:34:08.036Z,12.90
2023-05-12T20:36:25.574Z,12.86
2023-05-12T20:38:42.915Z,12.86
2023-05-12T20:41:00.941Z,12.82
2023-05-12T20:43:17.969Z,12.81
2023-05-12T20:45:37.740Z,12.81
2023-05-12T20:47:55.224Z,12.80
2023-05-12T20:50:12.476Z,12.75
2023-05-12T20:52:29.831Z,12.75
2023-05-12T20:54:47.705Z,12.74
2023-05-12T20:57:04.624Z,12.75
2023-05-12T20:59:21.959Z,12.74
2023-05-12T21:01:39.300Z,12.71
2023-05-12T21:03:57.090Z,12.71
2023-05-12T21:06:15.329Z,12.71
2023-05-12T21:08:32.651Z,12.70
2023-05-12T21:10:50.394Z,12.69
2023-05-12T21:13:07.738Z,12.64
2023-05-12T21:15:26.497Z,12.61
2023-05-12T21:17:44.956Z,12.58
2023-05-12T21:20:02.219Z,12.56
2023-05-12T21:22:19.549Z,12.55
2023-05-12T21:24:37.908Z,12.54
2023-05-12T21:26:55.179Z,12.51
2023-05-12T21:29:12.333Z,12.50
2023-05-12T21:31:29.708Z,12.49
2023-05-12T21:33:47.119Z,12.46
2023-05-12T21:36:04.363Z,12.47
2023-05-12T21:38:22.557Z,12.45
2023-05-12T21:40:39.900Z,12.41
2023-05-12T21:42:58.490Z,12.38
2023-05-12T21:45:15.611Z,12.34
2023-05-12T21:47:32.967Z,12.36
2023-05-12T21:49:50.072Z,12.36
2023-05-12T21:52:07.449Z,12.36
2023-05-12T21:54:25.381Z,12.34
2023-05-12T21:56:42.724Z,12.31
2023-05-12T21:59:00.037Z,12.26
2023-05-12T22:01:19.678Z,12.24
2023-05-12T22:03:37.725Z,12.23
2023-05-12T22:05:57.464Z,12.21
2023-05-12T22:08:15.361Z,12.15
2023-05-12T22:10:32.449Z,12.12
2023-05-12T22:12:49.757Z,12.09
2023-05-12T22:15:08.557Z,12.08
2023-05-12T22:17:26.762Z,12.05
2023-05-12T22:19:44.145Z,12.04
2023-05-12T22:22:01.498Z,12.03
2023-05-12T22:24:18.695Z,12.01
2023-05-12T22:26:36.203Z,11.97
2023-05-12T22:28:53.190Z,11.90
2023-05-12T22:31:10.598Z,11.87
2023-05-12T22:33:28.146Z,11.80
2023-05-12T22:35:45.443Z,11.74
2023-05-12T22:38:02.606Z,11.69
2023-05-12T22:40:20.104Z,11.62
2023-05-12T22:42:37.656Z,11.55
2023-05-12T22:44:54.959Z,11.51
2023-05-12T22:47:12.934Z,11.45
2023-05-12T22:49:30.005Z,11.41
2023-05-12T22:51:47.306Z,11.35
2023-05-12T22:54:05.624Z,11.30
2023-05-12T22:56:25.326Z,11.23
2023-05-12T22:58:42.857Z,11.17
2023-05-12T23:01:00.202Z,11.11
2023-05-12T23:03:17.546Z,11.05
2023-05-12T23:05:35.060Z,10.98
2023-05-12T23:07:52.052Z,10.93
2023-05-12T23:10:09.002Z,10.89
2023-05-12T23:12:26.573Z,10.79
2023-05-12T23:14:44.330Z,10.75
2023-05-12T23:17:02.822Z,10.70
2023-05-12T23:19:20.166Z,10.64
2023-05-12T23:21:38.509Z,10.57
2023-05-12T23:23:56.304Z,10.54
2023-05-12T23:26:13.351Z,10.49
2023-05-12T23:28:30.687Z,10.46
2023-05-12T23:30:48.591Z,10.43
2023-05-12T23:33:06.458Z,10.39
2023-05-12T23:35:23.531Z,10.32
2023-05-12T23:37:40.859Z,10.28
2023-05-12T23:39:59.160Z,10.25
2023-05-12T23:42:16.040Z,10.18
2023-05-12T23:44:33.369Z,10.11
2023-05-12T23:46:50.362Z,10.07
2023-05-12T23:49:08.396Z,10.02
2023-05-12T23:51:25.712Z,9.97
2023-05-12T23:53:43.613Z,9.92
2023-05-12T23:56:00.521Z,9.87
2023-05-12T23:58:17.460Z,9.84
